Archival Weather

Sydney Intl

Sydney, Australia (YSSY)

Report from: Wednesday, September 20, 2023 1:00 AM AEST
Current time: Saturday, June 22, 2024 10:45 AM AEST

Current weather – Weather history – Daily summaries
Weather forecast

Temperature22.0°C (71.6°F)
Dew point4.0°C (39.2°F)
Winds 9 kts (4.6 m/s, 10.4 mph) North (360°)
Visibility6.2 mi. (10 km)
Clouds Sky clear
Altimeter29.83 in.Hg (1010 mB)
Relative humidity31 %
Density altitude1,047 ft. (319 m)
Remarks Fully automated report
No clouds detected
Flight conditions Visual Meteorological Conditions
Raw dataYSSY 191500Z AUTO 36009KT 9999 // NCD 22/04 Q1010 RF00.0/000.0
An error has occurred. This application may no longer respond until reloaded. Reload 🗙